sensor_id;sensor_type;location;lat;lon;timestamp;pressure;altitude;pressure_sealevel;temperature
67515;BMP280;60646;55.802;37.032;2023-12-20T00:01:20;97900.75;;;8.15
67515;BMP280;60646;55.802;37.032;2023-12-20T00:03:46;97878.75;;;7.96
67515;BMP280;60646;55.802;37.032;2023-12-20T00:06:12;97891.38;;;8.09
67515;BMP280;60646;55.802;37.032;2023-12-20T00:08:38;97910.78;;;8.22
67515;BMP280;60646;55.802;37.032;2023-12-20T00:11:04;97873.44;;;7.96
67515;BMP280;60646;55.802;37.032;2023-12-20T00:13:30;97890.66;;;8.08
67515;BMP280;60646;55.802;37.032;2023-12-20T00:15:55;97899.28;;;8.14
67515;BMP280;60646;55.802;37.032;2023-12-20T00:18:21;97903.31;;;8.21
67515;BMP280;60646;55.802;37.032;2023-12-20T00:20:47;97904.16;;;8.29
67515;BMP280;60646;55.802;37.032;2023-12-20T00:23:13;97903.63;;;8.30
67515;BMP280;60646;55.802;37.032;2023-12-20T00:25:38;97876.19;;;8.22
67515;BMP280;60646;55.802;37.032;2023-12-20T00:28:04;97902.41;;;8.31
67515;BMP280;60646;55.802;37.032;2023-12-20T00:30:30;97902.41;;;8.31
67515;BMP280;60646;55.802;37.032;2023-12-20T00:32:56;97903.13;;;8.32
67515;BMP280;60646;55.802;37.032;2023-12-20T00:35:22;97923.97;;;8.47
67515;BMP280;60646;55.802;37.032;2023-12-20T00:37:48;97921.38;;;8.41
67515;BMP280;60646;55.802;37.032;2023-12-20T00:40:13;97919.69;;;8.44
67515;BMP280;60646;55.802;37.032;2023-12-20T00:42:39;97917.44;;;8.48
67515;BMP280;60646;55.802;37.032;2023-12-20T00:45:05;97890.56;;;8.32
67515;BMP280;60646;55.802;37.032;2023-12-20T00:47:31;97885.69;;;8.37
67515;BMP280;60646;55.802;37.032;2023-12-20T00:49:58;97896.50;;;8.39
67515;BMP280;60646;55.802;37.032;2023-12-20T00:52:24;97899.94;;;8.52
67515;BMP280;60646;55.802;37.032;2023-12-20T00:54:51;97893.91;;;8.52
67515;BMP280;60646;55.802;37.032;2023-12-20T00:57:16;97882.25;;;8.55
67515;BMP280;60646;55.802;37.032;2023-12-20T00:59:42;97888.78;;;8.54
67515;BMP280;60646;55.802;37.032;2023-12-20T01:02:08;97912.56;;;8.65
67515;BMP280;60646;55.802;37.032;2023-12-20T01:04:35;97895.78;;;8.57
67515;BMP280;60646;55.802;37.032;2023-12-20T01:07:01;97882.25;;;8.55
67515;BMP280;60646;55.802;37.032;2023-12-20T01:09:27;97869.25;;;8.51
67515;BMP280;60646;55.802;37.032;2023-12-20T01:12:12;97861.59;;;8.48
67515;BMP280;60646;55.802;37.032;2023-12-20T01:14:38;97877.31;;;8.59
67515;BMP280;60646;55.802;37.032;2023-12-20T01:17:05;97873.59;;;8.49
67515;BMP280;60646;55.802;37.032;2023-12-20T01:19:31;97869.13;;;8.44
67515;BMP280;60646;55.802;37.032;2023-12-20T01:21:57;97880.31;;;8.55
67515;BMP280;60646;55.802;37.032;2023-12-20T01:24:42;97850.06;;;8.40
67515;BMP280;60646;55.802;37.032;2023-12-20T01:27:08;97862.13;;;8.41
67515;BMP280;60646;55.802;37.032;2023-12-20T01:29:34;97870.34;;;8.43
67515;BMP280;60646;55.802;37.032;2023-12-20T01:31:59;97859.09;;;8.37
67515;BMP280;60646;55.802;37.032;2023-12-20T01:34:25;97861.41;;;8.40
67515;BMP280;60646;55.802;37.032;2023-12-20T01:36:51;97859.28;;;8.39
67515;BMP280;60646;55.802;37.032;2023-12-20T01:39:17;97852.53;;;8.38
67515;BMP280;60646;55.802;37.032;2023-12-20T01:41:43;97843.63;;;8.35
67515;BMP280;60646;55.802;37.032;2023-12-20T01:44:09;97834.28;;;8.28
67515;BMP280;60646;55.802;37.032;2023-12-20T01:46:35;97831.44;;;8.26
67515;BMP280;60646;55.802;37.032;2023-12-20T01:49:01;97834.28;;;8.28
67515;BMP280;60646;55.802;37.032;2023-12-20T01:51:28;97827.94;;;8.31
67515;BMP280;60646;55.802;37.032;2023-12-20T01:53:55;97828.78;;;8.40
67515;BMP280;60646;55.802;37.032;2023-12-20T01:56:22;97807.50;;;8.40
67515;BMP280;60646;55.802;37.032;2023-12-20T01:58:48;97796.47;;;8.36
67515;BMP280;60646;55.802;37.032;2023-12-20T02:01:14;97795.97;;;8.37
67515;BMP280;60646;55.802;37.032;2023-12-20T02:03:41;97805.88;;;8.37
67515;BMP280;60646;55.802;37.032;2023-12-20T02:06:08;97829.66;;;8.48
67515;BMP280;60646;55.802;37.032;2023-12-20T02:08:34;97819.19;;;8.37
67515;BMP280;60646;55.802;37.032;2023-12-20T02:11:00;97823.69;;;8.42
67515;BMP280;60646;55.802;37.032;2023-12-20T02:13:26;97822.03;;;8.39
67515;BMP280;60646;55.802;37.032;2023-12-20T02:15:53;97827.06;;;8.42
67515;BMP280;60646;55.802;37.032;2023-12-20T02:18:19;97814.88;;;8.33
67515;BMP280;60646;55.802;37.032;2023-12-20T02:20:44;97815.31;;;8.38
67515;BMP280;60646;55.802;37.032;2023-12-20T02:23:10;97822.47;;;8.43
67515;BMP280;60646;55.802;37.032;2023-12-20T02:25:36;97830.25;;;8.54
67515;BMP280;60646;55.802;37.032;2023-12-20T02:28:03;97811.84;;;8.43
67515;BMP280;60646;55.802;37.032;2023-12-20T02:30:30;97808.53;;;8.37
67515;BMP280;60646;55.802;37.032;2023-12-20T02:32:56;97818.59;;;8.44
67515;BMP280;60646;55.802;37.032;2023-12-20T02:35:21;97813.28;;;8.44
67515;BMP280;60646;55.802;37.032;2023-12-20T02:37:47;97820.63;;;8.51
67515;BMP280;60646;55.802;37.032;2023-12-20T02:40:13;97813.69;;;8.48
67515;BMP280;60646;55.802;37.032;2023-12-20T02:42:39;97817.75;;;8.49
67515;BMP280;60646;55.802;37.032;2023-12-20T02:45:05;97819.41;;;8.52
67515;BMP280;60646;55.802;37.032;2023-12-20T02:47:31;97810.09;;;8.45
67515;BMP280;60646;55.802;37.032;2023-12-20T02:49:57;97817.91;;;8.56
67515;BMP280;60646;55.802;37.032;2023-12-20T02:52:24;97814.09;;;8.52
67515;BMP280;60646;55.802;37.032;2023-12-20T02:54:50;97811.44;;;8.52
67515;BMP280;60646;55.802;37.032;2023-12-20T02:57:16;97794.03;;;8.51
67515;BMP280;60646;55.802;37.032;2023-12-20T02:59:42;97799.13;;;8.49
67515;BMP280;60646;55.802;37.032;2023-12-20T03:02:08;97796.47;;;8.49
67515;BMP280;60646;55.802;37.032;2023-12-20T03:04:34;97780.91;;;8.40
67515;BMP280;60646;55.802;37.032;2023-12-20T03:07:00;97801.38;;;8.45
67515;BMP280;60646;55.802;37.032;2023-12-20T03:09:26;97793.09;;;8.35
67515;BMP280;60646;55.802;37.032;2023-12-20T03:11:52;97806.50;;;8.43
67515;BMP280;60646;55.802;37.032;2023-12-20T03:14:18;97798.31;;;8.41
67515;BMP280;60646;55.802;37.032;2023-12-20T03:16:50;97792.16;;;8.32
67515;BMP280;60646;55.802;37.032;2023-12-20T03:19:17;97810.09;;;8.45
67515;BMP280;60646;55.802;37.032;2023-12-20T03:21:45;97802.19;;;8.40
67515;BMP280;60646;55.802;37.032;2023-12-20T03:24:10;97822.91;;;8.47
67515;BMP280;60646;55.802;37.032;2023-12-20T03:26:36;97812.81;;;8.40
67515;BMP280;60646;55.802;37.032;2023-12-20T03:29:02;97809.75;;;8.36
67515;BMP280;60646;55.802;37.032;2023-12-20T03:31:28;97822.91;;;8.47
67515;BMP280;60646;55.802;37.032;2023-12-20T03:33:54;97801.59;;;8.33
67515;BMP280;60646;55.802;37.032;2023-12-20T03:36:20;97825.34;;;8.45
67515;BMP280;60646;55.802;37.032;2023-12-20T03:38:46;97798.69;;;8.31
67515;BMP280;60646;55.802;37.032;2023-12-20T03:41:13;97797.06;;;8.28
67515;BMP280;60646;55.802;37.032;2023-12-20T03:43:39;97815.41;;;8.45
67515;BMP280;60646;55.802;37.032;2023-12-20T03:46:08;97806.91;;;8.33
67515;BMP280;60646;55.802;37.032;2023-12-20T03:48:34;97819.00;;;8.35
67515;BMP280;60646;55.802;37.032;2023-12-20T03:51:00;97822.03;;;8.39
67515;BMP280;60646;55.802;37.032;2023-12-20T03:53:25;97817.84;;;8.30
67515;BMP280;60646;55.802;37.032;2023-12-20T03:55:51;97837.91;;;8.44
67515;BMP280;60646;55.802;37.032;2023-12-20T03:58:17;97822.13;;;8.33
67515;BMP280;60646;55.802;37.032;2023-12-20T04:00:43;97802.69;;;8.25
67515;BMP280;60646;55.802;37.032;2023-12-20T04:03:09;97794.19;;;8.26
67515;BMP280;60646;55.802;37.032;2023-12-20T04:05:34;97821.19;;;8.30
67515;BMP280;60646;55.802;37.032;2023-12-20T04:08:01;97801.16;;;8.16
67515;BMP280;60646;55.802;37.032;2023-12-20T04:10:27;97814.06;;;8.25
67515;BMP280;60646;55.802;37.032;2023-12-20T04:12:53;97809.41;;;8.13
67515;BMP280;60646;55.802;37.032;2023-12-20T04:15:21;97831.00;;;8.22
67515;BMP280;60646;55.802;37.032;2023-12-20T04:17:47;97832.59;;;8.12
67515;BMP280;60646;55.802;37.032;2023-12-20T04:20:13;97823.59;;;8.02
67515;BMP280;60646;55.802;37.032;2023-12-20T04:22:39;97818.41;;;7.91
67515;BMP280;60646;55.802;37.032;2023-12-20T04:25:05;97835.63;;;8.03
67515;BMP280;60646;55.802;37.032;2023-12-20T04:27:31;97850.16;;;8.02
67515;BMP280;60646;55.802;37.032;2023-12-20T04:29:57;97829.78;;;7.92
67515;BMP280;60646;55.802;37.032;2023-12-20T04:32:23;97839.75;;;8.04
67515;BMP280;60646;55.802;37.032;2023-12-20T04:34:49;97835.16;;;8.05
67515;BMP280;60646;55.802;37.032;2023-12-20T04:37:15;97841.47;;;8.02
67515;BMP280;60646;55.802;37.032;2023-12-20T04:39:41;97855.19;;;8.06
67515;BMP280;60646;55.802;37.032;2023-12-20T04:42:07;97857.53;;;8.09
67515;BMP280;60646;55.802;37.032;2023-12-20T04:44:33;97858.59;;;8.19
67515;BMP280;60646;55.802;37.032;2023-12-20T04:46:59;97847.13;;;8.11
67515;BMP280;60646;55.802;37.032;2023-12-20T04:49:25;97850.00;;;8.13
67515;BMP280;60646;55.802;37.032;2023-12-20T04:51:52;97828.28;;;8.09
67515;BMP280;60646;55.802;37.032;2023-12-20T04:54:18;97833.84;;;8.11
67515;BMP280;60646;55.802;37.032;2023-12-20T04:56:43;97824.41;;;8.10
67515;BMP280;60646;55.802;37.032;2023-12-20T04:59:09;97838.06;;;8.20
67515;BMP280;60646;55.802;37.032;2023-12-20T05:01:35;97834.19;;;8.21
67515;BMP280;60646;55.802;37.032;2023-12-20T05:04:01;97849.22;;;8.31
67515;BMP280;60646;55.802;37.032;2023-12-20T05:06:27;97842.47;;;8.30
67515;BMP280;60646;55.802;37.032;2023-12-20T05:08:53;97838.38;;;8.29
67515;BMP280;60646;55.802;37.032;2023-12-20T05:11:18;97849.47;;;8.33
67515;BMP280;60646;55.802;37.032;2023-12-20T05:13:44;97852.31;;;8.36
67515;BMP280;60646;55.802;37.032;2023-12-20T05:16:10;97853.56;;;8.35
67515;BMP280;60646;55.802;37.032;2023-12-20T05:18:36;97854.56;;;8.31
67515;BMP280;60646;55.802;37.032;2023-12-20T05:21:03;97866.47;;;8.44
67515;BMP280;60646;55.802;37.032;2023-12-20T05:23:29;97846.66;;;8.26
67515;BMP280;60646;55.802;37.032;2023-12-20T05:25:54;97865.41;;;8.33
67515;BMP280;60646;55.802;37.032;2023-12-20T05:28:21;97854.00;;;8.20
67515;BMP280;60646;55.802;37.032;2023-12-20T05:30:47;97868.88;;;8.28
67515;BMP280;60646;55.802;37.032;2023-12-20T05:33:13;97879.69;;;8.30
67515;BMP280;60646;55.802;37.032;2023-12-20T05:35:38;97874.75;;;8.21
67515;BMP280;60646;55.802;37.032;2023-12-20T05:38:04;97857.81;;;8.24
67515;BMP280;60646;55.802;37.032;2023-12-20T05:40:30;97853.78;;;8.18
67515;BMP280;60646;55.802;37.032;2023-12-20T05:42:56;97877.66;;;8.23
67515;BMP280;60646;55.802;37.032;2023-12-20T05:45:22;97869.00;;;8.17
67515;BMP280;60646;55.802;37.032;2023-12-20T05:47:48;97860.44;;;8.11
67515;BMP280;60646;55.802;37.032;2023-12-20T05:50:14;97864.72;;;8.14
67515;BMP280;60646;55.802;37.032;2023-12-20T05:52:40;97873.00;;;8.11
67515;BMP280;60646;55.802;37.032;2023-12-20T05:55:06;97871.25;;;8.13
67515;BMP280;60646;55.802;37.032;2023-12-20T05:57:35;97879.47;;;8.15
67515;BMP280;60646;55.802;37.032;2023-12-20T06:00:00;97870.63;;;8.07
67515;BMP280;60646;55.802;37.032;2023-12-20T06:02:26;97863.03;;;7.98
67515;BMP280;60646;55.802;37.032;2023-12-20T06:04:52;97879.66;;;8.17
67515;BMP280;60646;55.802;37.032;2023-12-20T06:07:24;97890.09;;;8.15
67515;BMP280;60646;55.802;37.032;2023-12-20T06:09:50;97885.16;;;8.06
67515;BMP280;60646;55.802;37.032;2023-12-20T06:12:16;97890.09;;;8.15
67515;BMP280;60646;55.802;37.032;2023-12-20T06:14:42;97902.19;;;8.16
67515;BMP280;60646;55.802;37.032;2023-12-20T06:17:08;97902.34;;;8.18
67515;BMP280;60646;55.802;37.032;2023-12-20T06:19:34;97895.81;;;8.19
67515;BMP280;60646;55.802;37.032;2023-12-20T06:22:00;97893.97;;;8.14
67515;BMP280;60646;55.802;37.032;2023-12-20T06:24:26;97896.97;;;8.24
67515;BMP280;60646;55.802;37.032;2023-12-20T06:26:54;97909.78;;;8.25
67515;BMP280;60646;55.802;37.032;2023-12-20T06:29:21;97885.78;;;8.12
67515;BMP280;60646;55.802;37.032;2023-12-20T06:31:47;97890.09;;;8.15
67515;BMP280;60646;55.802;37.032;2023-12-20T06:34:13;97904.47;;;8.25
67515;BMP280;60646;55.802;37.032;2023-12-20T06:36:38;97885.50;;;8.16
67515;BMP280;60646;55.802;37.032;2023-12-20T06:39:04;97883.25;;;8.20
67515;BMP280;60646;55.802;37.032;2023-12-20T06:41:30;97907.25;;;8.33
67515;BMP280;60646;55.802;37.032;2023-12-20T06:43:56;97894.03;;;8.27
67515;BMP280;60646;55.802;37.032;2023-12-20T06:46:22;97876.97;;;8.17
67515;BMP280;60646;55.802;37.032;2023-12-20T06:48:48;97879.28;;;8.26
67515;BMP280;60646;55.802;37.032;2023-12-20T06:51:15;97904.69;;;8.41
67515;BMP280;60646;55.802;37.032;2023-12-20T06:53:41;97872.22;;;8.16
67515;BMP280;60646;55.802;37.032;2023-12-20T06:56:08;97881.75;;;8.24
67515;BMP280;60646;55.802;37.032;2023-12-20T06:58:34;97902.56;;;8.39
67515;BMP280;60646;55.802;37.032;2023-12-20T07:01:02;97890.34;;;8.30
67515;BMP280;60646;55.802;37.032;2023-12-20T07:03:28;97910.25;;;8.43
67515;BMP280;60646;55.802;37.032;2023-12-20T07:05:54;97909.03;;;8.44
67515;BMP280;60646;55.802;37.032;2023-12-20T07:08:19;97899.38;;;8.41
67515;BMP280;60646;55.802;37.032;2023-12-20T07:10:45;97903.19;;;8.45
67515;BMP280;60646;55.802;37.032;2023-12-20T07:13:11;97896.94;;;8.43
67515;BMP280;60646;55.802;37.032;2023-12-20T07:15:37;97909.03;;;8.44
67515;BMP280;60646;55.802;37.032;2023-12-20T07:18:03;97901.25;;;8.46
67515;BMP280;60646;55.802;37.032;2023-12-20T07:20:30;97903.19;;;8.45
67515;BMP280;60646;55.802;37.032;2023-12-20T07:22:56;97912.63;;;8.46
67515;BMP280;60646;55.802;37.032;2023-12-20T07:25:22;97911.19;;;8.45
67515;BMP280;60646;55.802;37.032;2023-12-20T07:27:48;97906.03;;;8.34
67515;BMP280;60646;55.802;37.032;2023-12-20T07:30:14;97924.28;;;8.43
67515;BMP280;60646;55.802;37.032;2023-12-20T07:32:40;97923.53;;;8.43
67515;BMP280;60646;55.802;37.032;2023-12-20T07:35:06;97915.72;;;8.31
67515;BMP280;60646;55.802;37.032;2023-12-20T07:37:32;97919.09;;;8.32
67515;BMP280;60646;55.802;37.032;2023-12-20T07:39:58;97935.19;;;8.40
67515;BMP280;60646;55.802;37.032;2023-12-20T07:42:24;97935.00;;;8.38
67515;BMP280;60646;55.802;37.032;2023-12-20T07:44:50;97929.84;;;8.40
67515;BMP280;60646;55.802;37.032;2023-12-20T07:47:16;97931.09;;;8.39
67515;BMP280;60646;55.802;37.032;2023-12-20T07:49:50;97911.41;;;8.28
67515;BMP280;60646;55.802;37.032;2023-12-20T07:52:18;97929.84;;;8.40
67515;BMP280;60646;55.802;37.032;2023-12-20T07:54:45;97939.72;;;8.45
67515;BMP280;60646;55.802;37.032;2023-12-20T07:57:11;97940.22;;;8.43
67515;BMP280;60646;55.802;37.032;2023-12-20T07:59:37;97925.78;;;8.39
67515;BMP280;60646;55.802;37.032;2023-12-20T08:02:03;97938.63;;;8.53
67515;BMP280;60646;55.802;37.032;2023-12-20T08:04:29;97929.31;;;8.47
67515;BMP280;60646;55.802;37.032;2023-12-20T08:06:55;97933.59;;;8.50
67515;BMP280;60646;55.802;37.032;2023-12-20T08:09:21;97931.59;;;8.56
67515;BMP280;60646;55.802;37.032;2023-12-20T08:11:48;97925.94;;;8.59
67515;BMP280;60646;55.802;37.032;2023-12-20T08:14:14;97906.00;;;8.53
67515;BMP280;60646;55.802;37.032;2023-12-20T08:16:41;97936.19;;;8.68
67515;BMP280;60646;55.802;37.032;2023-12-20T08:19:07;97942.28;;;8.82
67515;BMP280;60646;55.802;37.032;2023-12-20T08:21:33;97939.00;;;8.76
67515;BMP280;60646;55.802;37.032;2023-12-20T08:23:59;97926.28;;;8.69
67515;BMP280;60646;55.802;37.032;2023-12-20T08:26:26;97955.94;;;8.92
67515;BMP280;60646;55.802;37.032;2023-12-20T08:28:52;97937.22;;;8.97
67515;BMP280;60646;55.802;37.032;2023-12-20T08:31:19;97933.59;;;8.95
67515;BMP280;60646;55.802;37.032;2023-12-20T08:33:46;97924.41;;;8.96
67515;BMP280;60646;55.802;37.032;2023-12-20T08:36:12;97920.53;;;8.97
67515;BMP280;60646;55.802;37.032;2023-12-20T08:38:38;97925.22;;;9.04
67515;BMP280;60646;55.802;37.032;2023-12-20T08:41:05;97919.59;;;9.07
67515;BMP280;60646;55.802;37.032;2023-12-20T08:43:31;97938.25;;;9.20
67515;BMP280;60646;55.802;37.032;2023-12-20T08:45:57;97920.44;;;9.15
67515;BMP280;60646;55.802;37.032;2023-12-20T08:48:23;97928.03;;;9.24
67515;BMP280;60646;55.802;37.032;2023-12-20T08:50:49;97909.16;;;9.22
67515;BMP280;60646;55.802;37.032;2023-12-20T08:53:18;97905.66;;;9.27
67515;BMP280;60646;55.802;37.032;2023-12-20T08:55:44;97913.97;;;9.37
67515;BMP280;60646;55.802;37.032;2023-12-20T08:58:11;97903.22;;;9.29
67515;BMP280;60646;55.802;37.032;2023-12-20T09:00:37;97886.00;;;9.17
67515;BMP280;60646;55.802;37.032;2023-12-20T09:03:04;97878.22;;;9.19
67515;BMP280;60646;55.802;37.032;2023-12-20T09:05:31;97902.09;;;9.38
67515;BMP280;60646;55.802;37.032;2023-12-20T09:07:57;97889.19;;;9.29
67515;BMP280;60646;55.802;37.032;2023-12-20T09:10:23;97899.31;;;9.30
67515;BMP280;60646;55.802;37.032;2023-12-20T09:12:50;97877.00;;;9.20
67515;BMP280;60646;55.802;37.032;2023-12-20T09:15:16;97903.00;;;9.40
67515;BMP280;60646;55.802;37.032;2023-12-20T09:17:42;97885.09;;;9.28
67515;BMP280;60646;55.802;37.032;2023-12-20T09:20:09;97909.78;;;9.41
67515;BMP280;60646;55.802;37.032;2023-12-20T09:22:36;97879.88;;;9.22
67515;BMP280;60646;55.802;37.032;2023-12-20T09:25:04;97897.25;;;9.36
67515;BMP280;60646;55.802;37.032;2023-12-20T09:27:31;97890.50;;;9.35
67515;BMP280;60646;55.802;37.032;2023-12-20T09:29:57;97906.63;;;9.43
67515;BMP280;60646;55.802;37.032;2023-12-20T09:32:23;97902.00;;;9.44
67515;BMP280;60646;55.802;37.032;2023-12-20T09:34:54;97908.72;;;9.44
67515;BMP280;60646;55.802;37.032;2023-12-20T09:37:20;97925.25;;;9.43
67515;BMP280;60646;55.802;37.032;2023-12-20T09:39:46;97928.66;;;9.44
67515;BMP280;60646;55.802;37.032;2023-12-20T09:42:14;97908.97;;;9.33
67515;BMP280;60646;55.802;37.032;2023-12-20T09:44:42;97913.75;;;9.35
67515;BMP280;60646;55.802;37.032;2023-12-20T09:47:10;97927.22;;;9.43
67515;BMP280;60646;55.802;37.032;2023-12-20T09:49:36;97911.63;;;9.33
67515;BMP280;60646;55.802;37.032;2023-12-20T09:52:04;97916.56;;;9.43
67515;BMP280;60646;55.802;37.032;2023-12-20T09:54:31;97889.69;;;9.27
67515;BMP280;60646;55.802;37.032;2023-12-20T09:56:58;97873.09;;;9.21
67515;BMP280;60646;55.802;37.032;2023-12-20T09:59:24;97912.44;;;9.41
67515;BMP280;60646;55.802;37.032;2023-12-20T10:01:51;97890.75;;;9.24
67515;BMP280;60646;55.802;37.032;2023-12-20T10:04:22;97903.81;;;9.35
67515;BMP280;60646;55.802;37.032;2023-12-20T10:06:48;97911.09;;;9.35
67515;BMP280;60646;55.802;37.032;2023-12-20T10:09:14;97899.63;;;9.27
67515;BMP280;60646;55.802;37.032;2023-12-20T10:11:40;97913.66;;;9.40
67515;BMP280;60646;55.802;37.032;2023-12-20T10:14:08;97897.91;;;9.29
67515;BMP280;60646;55.802;37.032;2023-12-20T10:16:33;97898.41;;;9.28
67515;BMP280;60646;55.802;37.032;2023-12-20T10:19:00;97893.41;;;9.24
67515;BMP280;60646;55.802;37.032;2023-12-20T10:21:30;97921.25;;;9.36
67515;BMP280;60646;55.802;37.032;2023-12-20T10:23:56;97916.31;;;9.27
67515;BMP280;60646;55.802;37.032;2023-12-20T10:26:24;97925.34;;;9.37
67515;BMP280;60646;55.802;37.032;2023-12-20T10:28:51;97894.94;;;9.20
67515;BMP280;60646;55.802;37.032;2023-12-20T10:31:34;97926.50;;;9.42
67515;BMP280;60646;55.802;37.032;2023-12-20T10:34:02;97931.81;;;9.42
67515;BMP280;60646;55.802;37.032;2023-12-20T10:36:33;97926.00;;;9.44
67515;BMP280;60646;55.802;37.032;2023-12-20T10:38:59;97923.59;;;9.40
67515;BMP280;60646;55.802;37.032;2023-12-20T10:41:30;97907.19;;;9.36
67515;BMP280;60646;55.802;37.032;2023-12-20T10:43:59;97901.88;;;9.36
67515;BMP280;60646;55.802;37.032;2023-12-20T10:46:29;97897.25;;;9.36
67515;BMP280;60646;55.802;37.032;2023-12-20T10:48:57;97907.72;;;9.48
67515;BMP280;60646;55.802;37.032;2023-12-20T10:51:24;97893.47;;;9.45
67515;BMP280;60646;55.802;37.032;2023-12-20T10:53:53;97874.13;;;9.31
67515;BMP280;60646;55.802;37.032;2023-12-20T10:56:19;97901.38;;;9.51
67515;BMP280;60646;55.802;37.032;2023-12-20T10:58:47;97879.34;;;9.37
67515;BMP280;60646;55.802;37.032;2023-12-20T11:01:16;97900.88;;;9.52
67515;BMP280;60646;55.802;37.032;2023-12-20T11:03:54;97910.97;;;9.54
67515;BMP280;60646;55.802;37.032;2023-12-20T11:09:17;97913.25;;;9.50
67515;BMP280;60646;55.802;37.032;2023-12-20T11:12:20;97919.19;;;9.56
67515;BMP280;60646;55.802;37.032;2023-12-20T11:14:55;97903.41;;;9.44
67515;BMP280;60646;55.802;37.032;2023-12-20T11:17:32;97898.06;;;9.44
67515;BMP280;60646;55.802;37.032;2023-12-20T11:22:26;97904.34;;;9.47
67515;BMP280;60646;55.802;37.032;2023-12-20T11:25:14;97917.44;;;9.58
67515;BMP280;60646;55.802;37.032;2023-12-20T11:28:08;97910.88;;;9.59
67515;BMP280;60646;55.802;37.032;2023-12-20T11:30:51;97891.00;;;9.47
67515;BMP280;60646;55.802;37.032;2023-12-20T11:33:24;97913.47;;;9.52
67515;BMP280;60646;55.802;37.032;2023-12-20T11:36:13;97920.63;;;9.57
67515;BMP280;60646;55.802;37.032;2023-12-20T11:38:57;97929.13;;;9.55
67515;BMP280;60646;55.802;37.032;2023-12-20T11:41:24;97916.13;;;9.38
67515;BMP280;60646;55.802;37.032;2023-12-20T11:43:58;97932.13;;;9.52
67515;BMP280;60646;55.802;37.032;2023-12-20T11:46:30;97937.22;;;9.50
67515;BMP280;60646;55.802;37.032;2023-12-20T11:48:57;97929.22;;;9.36
67515;BMP280;60646;55.802;37.032;2023-12-20T11:51:42;97925.84;;;9.36
67515;BMP280;60646;55.802;37.032;2023-12-20T11:54:09;97923.19;;;9.36
67515;BMP280;60646;55.802;37.032;2023-12-20T11:56:36;97917.47;;;9.32
67515;BMP280;60646;55.802;37.032;2023-12-20T11:59:12;97936.09;;;9.45
67515;BMP280;60646;55.802;37.032;2023-12-20T12:01:53;97930.25;;;9.47
67515;BMP280;60646;55.802;37.032;2023-12-20T12:04:29;97922.78;;;9.32
67515;BMP280;60646;55.802;37.032;2023-12-20T12:06:58;97915.09;;;9.28
67515;BMP280;60646;55.802;37.032;2023-12-20T12:09:24;97933.13;;;9.35
67515;BMP280;60646;55.802;37.032;2023-12-20T12:11:49;97945.63;;;9.40
67515;BMP280;60646;55.802;37.032;2023-12-20T12:14:16;97949.53;;;9.39
67515;BMP280;60646;55.802;37.032;2023-12-20T12:16:42;97948.09;;;9.38
67515;BMP280;60646;55.802;37.032;2023-12-20T12:19:20;97942.06;;;9.38
67515;BMP280;60646;55.802;37.032;2023-12-20T12:21:46;97947.72;;;9.34
67515;BMP280;60646;55.802;37.032;2023-12-20T12:24:12;97934.81;;;9.25
67515;BMP280;60646;55.802;37.032;2023-12-20T12:26:38;97940.13;;;9.25
67515;BMP280;60646;55.802;37.032;2023-12-20T12:29:08;97943.78;;;9.22
67515;BMP280;60646;55.802;37.032;2023-12-20T12:31:35;97970.03;;;9.31
67515;BMP280;60646;55.802;37.032;2023-12-20T12:34:01;97972.97;;;9.28
67515;BMP280;60646;55.802;37.032;2023-12-20T12:36:28;97977.81;;;9.29
67515;BMP280;60646;55.802;37.032;2023-12-20T12:38:56;97973.81;;;9.23
67515;BMP280;60646;55.802;37.032;2023-12-20T12:41:23;97983.75;;;9.22
67515;BMP280;60646;55.802;37.032;2023-12-20T12:43:49;97991.22;;;9.24
67515;BMP280;60646;55.802;37.032;2023-12-20T12:46:15;97978.59;;;9.11
67515;BMP280;60646;55.802;37.032;2023-12-20T12:48:41;97998.28;;;9.21
67515;BMP280;60646;55.802;37.032;2023-12-20T12:51:06;97985.78;;;9.16
67515;BMP280;60646;55.802;37.032;2023-12-20T12:53:38;97999.00;;;9.22
67515;BMP280;60646;55.802;37.032;2023-12-20T12:56:04;97994.38;;;9.22
67515;BMP280;60646;55.802;37.032;2023-12-20T12:58:30;97982.91;;;9.14
67515;BMP280;60646;55.802;37.032;2023-12-20T13:00:55;97970.41;;;9.09
67515;BMP280;60646;55.802;37.032;2023-12-20T13:03:22;97984.53;;;9.17
67515;BMP280;60646;55.802;37.032;2023-12-20T13:05:47;97964.34;;;9.09
67515;BMP280;60646;55.802;37.032;2023-12-20T13:08:14;97959.13;;;9.03
67515;BMP280;60646;55.802;37.032;2023-12-20T13:10:40;97990.28;;;9.21
67515;BMP280;60646;55.802;37.032;2023-12-20T13:13:06;97963.63;;;9.08
67515;BMP280;60646;55.802;37.032;2023-12-20T13:15:32;97974.69;;;9.12
67515;BMP280;60646;55.802;37.032;2023-12-20T13:17:58;97971.53;;;9.14
67515;BMP280;60646;55.802;37.032;2023-12-20T13:20:24;97981.88;;;9.17
67515;BMP280;60646;55.802;37.032;2023-12-20T13:22:49;97976.53;;;9.17
67515;BMP280;60646;55.802;37.032;2023-12-20T13:25:15;97951.44;;;9.00
67515;BMP280;60646;55.802;37.032;2023-12-20T13:27:41;97958.91;;;9.01
67515;BMP280;60646;55.802;37.032;2023-12-20T13:30:07;97952.78;;;8.93
67515;BMP280;60646;55.802;37.032;2023-12-20T13:32:33;97980.31;;;9.09
67515;BMP280;60646;55.802;37.032;2023-12-20T13:34:59;97953.28;;;8.92
67515;BMP280;60646;55.802;37.032;2023-12-20T13:37:25;97952.06;;;8.93
67515;BMP280;60646;55.802;37.032;2023-12-20T13:39:50;97953.75;;;8.90
67515;BMP280;60646;55.802;37.032;2023-12-20T13:42:16;97967.28;;;8.92
67515;BMP280;60646;55.802;37.032;2023-12-20T13:44:42;97960.97;;;8.95
67515;BMP280;60646;55.802;37.032;2023-12-20T13:47:08;97948.44;;;8.90
67515;BMP280;60646;55.802;37.032;2023-12-20T13:49:34;97958.59;;;8.92
67515;BMP280;60646;55.802;37.032;2023-12-20T13:52:03;97967.00;;;8.96
67515;BMP280;60646;55.802;37.032;2023-12-20T13:54:30;97952.53;;;8.78
67515;BMP280;60646;55.802;37.032;2023-12-20T13:56:55;97976.50;;;8.91
67515;BMP280;60646;55.802;37.032;2023-12-20T13:59:23;97971.19;;;8.91
67515;BMP280;60646;55.802;37.032;2023-12-20T14:01:49;97984.41;;;8.97
67515;BMP280;60646;55.802;37.032;2023-12-20T14:04:16;97988.09;;;8.94
67515;BMP280;60646;55.802;37.032;2023-12-20T14:06:42;97998.22;;;8.95
67515;BMP280;60646;55.802;37.032;2023-12-20T14:09:08;98008.16;;;8.95
67515;BMP280;60646;55.802;37.032;2023-12-20T14:11:34;98003.56;;;8.95
67515;BMP280;60646;55.802;37.032;2023-12-20T14:14:00;98032.69;;;9.06